Time;durP1;ratioP1;P1;durP2;ratioP2;P2;SDS_P1;SDS_P2;PMS_P1;PMS_P2;Temp;Humidity;BMP_temperature;BMP_pressure;BME280_temperature;BME280_humidity;BME280_pressure;Samples;Min_cycle;Max_cycle;Signal;HPM_P1;HPM_P2
2022/04/18 00:02:23;;;;;;;2.85;1.75;;;6.20;78.40;;;;;;5116415;28;20055;-74
2022/04/18 00:04:49;;;;;;;2.10;1.60;;;6.20;79.50;;;;;;5115972;28;20036;-74
2022/04/18 00:07:16;;;;;;;1.52;1.40;;;6.20;79.20;;;;;;5117569;28;20556;-74
2022/04/18 00:09:42;;;;;;;3.42;2.38;;;6.30;78.00;;;;;;5114045;28;20126;-74
2022/04/18 00:12:08;;;;;;;7.43;2.25;;;6.20;77.60;;;;;;5114240;28;20455;-74
2022/04/18 00:14:35;;;;;;;3.42;2.00;;;6.20;77.10;;;;;;5112724;28;20558;-74
2022/04/18 00:17:00;;;;;;;1.65;1.50;;;6.10;76.20;;;;;;5113214;28;20034;-74
2022/04/18 00:19:26;;;;;;;5.68;3.13;;;6.00;76.20;;;;;;5116689;28;20043;-74
2022/04/18 00:21:52;;;;;;;3.47;2.40;;;6.00;78.10;;;;;;5112613;28;20023;-74
2022/04/18 00:24:21;;;;;;;1.80;1.70;;;6.00;78.80;;;;;;5113714;28;20023;-74
2022/04/18 00:26:47;;;;;;;2.10;1.60;;;5.90;79.40;;;;;;5112710;28;20058;-74
2022/04/18 00:29:13;;;;;;;1.83;1.73;;;5.80;82.30;;;;;;5113921;28;20030;-74
2022/04/18 00:31:39;;;;;;;3.30;1.65;;;5.70;81.00;;;;;;5113346;28;20031;-74
2022/04/18 00:34:05;;;;;;;1.73;1.52;;;5.50;81.60;;;;;;5113219;28;20031;-73
2022/04/18 00:36:31;;;;;;;1.70;1.60;;;5.40;94.30;;;;;;5114449;28;20081;-74
2022/04/18 00:38:58;;;;;;;4.20;2.35;;;5.40;91.70;;;;;;5112764;28;20051;-74
2022/04/18 00:41:24;;;;;;;1.58;1.45;;;5.30;91.50;;;;;;5113957;27;20020;-74
2022/04/18 00:43:50;;;;;;;3.58;1.75;;;5.20;91.20;;;;;;5113119;28;20414;-74
2022/04/18 00:46:18;;;;;;;2.03;1.60;;;5.10;93.80;;;;;;5114535;28;20534;-74
2022/04/18 00:48:45;;;;;;;2.53;1.63;;;5.00;99.00;;;;;;5114438;27;20095;-74
2022/04/18 00:51:13;;;;;;;1.77;1.67;;;4.90;98.60;;;;;;5113672;28;20270;-74
2022/04/18 00:53:41;;;;;;;3.47;1.60;;;4.70;99.90;;;;;;5114147;28;20499;-74
2022/04/18 00:56:08;;;;;;;2.08;1.50;;;4.60;99.90;;;;;;5113320;28;20022;-74
2022/04/18 00:58:36;;;;;;;1.65;1.50;;;4.40;99.90;;;;;;5117630;28;20023;-74
2022/04/18 01:01:02;;;;;;;4.00;1.85;;;4.20;99.90;;;;;;5115512;28;20054;-74
2022/04/18 01:03:30;;;;;;;2.53;1.90;;;4.10;99.90;;;;;;5111423;28;20023;-74
2022/04/18 01:05:59;;;;;;;1.50;1.40;;;4.00;99.90;;;;;;5112299;28;20035;-74
2022/04/18 01:08:25;;;;;;;1.90;1.80;;;3.80;99.90;;;;;;5112365;28;20099;-74
2022/04/18 01:10:53;;;;;;;3.22;1.85;;;3.60;99.90;;;;;;5111559;28;20070;-74
2022/04/18 01:13:19;;;;;;;1.80;1.70;;;3.40;99.90;;;;;;5112852;28;20051;-74
2022/04/18 01:15:44;;;;;;;3.03;2.22;;;3.30;99.90;;;;;;5115310;28;20023;-74
2022/04/18 01:18:10;;;;;;;1.70;1.45;;;3.20;99.90;;;;;;5110280;28;20028;-74
2022/04/18 01:20:36;;;;;;;1.52;1.38;;;3.00;99.90;;;;;;5111430;28;20475;-74
2022/04/18 01:23:05;;;;;;;3.17;1.83;;;3.00;99.90;;;;;;5110194;28;20023;-74
2022/04/18 01:31:01;;;;;;;3.35;1.63;;;2.70;99.90;;;;;;5112849;28;20035;-74
2022/04/18 01:33:29;;;;;;;2.58;1.80;;;2.60;99.90;;;;;;5122256;28;20024;-73
2022/04/18 01:35:55;;;;;;;3.25;2.00;;;2.50;99.90;;;;;;5113447;28;20019;-74
2022/04/18 01:38:21;;;;;;;2.88;1.98;;;2.40;99.90;;;;;;5116260;28;20181;-74
2022/04/18 01:40:48;;;;;;;3.78;2.33;;;2.40;99.90;;;;;;5113380;28;20661;-74
2022/04/18 01:43:14;;;;;;;4.00;1.88;;;2.30;99.90;;;;;;5111716;28;20023;-74
2022/04/18 01:45:39;;;;;;;3.80;2.10;;;2.30;99.90;;;;;;5112062;28;20114;-74
2022/04/18 01:48:05;;;;;;;2.70;1.85;;;2.30;99.90;;;;;;5111674;28;20020;-74
2022/04/18 01:50:31;;;;;;;2.85;1.67;;;2.30;99.90;;;;;;5112516;28;20092;-73
2022/04/18 01:52:59;;;;;;;1.40;1.30;;;2.20;99.90;;;;;;5112935;28;20102;-74
2022/04/18 01:55:24;;;;;;;1.67;1.42;;;2.10;99.90;;;;;;5114603;28;20617;-74
2022/04/18 01:57:50;;;;;;;3.40;2.03;;;2.10;99.90;;;;;;5115703;28;20259;-74
2022/04/18 02:00:16;;;;;;;1.65;1.55;;;2.10;99.90;;;;;;5116157;28;20024;-74
2022/04/18 02:02:42;;;;;;;1.60;1.50;;;2.10;99.90;;;;;;5115395;28;20044;-74
2022/04/18 02:05:08;;;;;;;1.75;1.65;;;2.20;99.90;;;;;;5116302;28;20055;-74
2022/04/18 02:07:34;;;;;;;3.53;1.80;;;2.20;99.90;;;;;;5115746;28;20020;-74
2022/04/18 02:10:00;;;;;;;1.70;1.60;;;2.20;99.90;;;;;;5114820;27;20028;-74
2022/04/18 02:12:25;;;;;;;2.53;1.70;;;2.10;99.90;;;;;;5116219;28;20126;-74
2022/04/18 02:14:51;;;;;;;2.15;1.55;;;2.00;99.90;;;;;;5115402;27;20062;-74
2022/04/18 02:17:17;;;;;;;3.15;1.50;;;2.10;99.90;;;;;;5113448;28;20476;-74
2022/04/18 02:19:44;;;;;;;1.85;1.60;;;2.20;99.90;;;;;;5116070;28;20077;-74
2022/04/18 02:22:12;;;;;;;2.95;1.40;;;2.30;99.90;;;;;;5115229;28;20008;-74
2022/04/18 02:24:38;;;;;;;1.92;1.75;;;2.40;99.90;;;;;;5114551;28;20322;-73
2022/04/18 02:27:06;;;;;;;2.75;1.55;;;2.40;99.90;;;;;;5113299;28;20118;-74
2022/04/18 02:29:32;;;;;;;1.63;1.52;;;2.30;99.90;;;;;;5115071;28;20027;-74
2022/04/18 02:34:42;;;;;;;1.60;1.50;;;2.30;99.90;;;;;;5116118;28;20080;-74
2022/04/18 02:37:07;;;;;;;2.15;2.05;;;2.20;99.90;;;;;;5115425;28;20110;-74
2022/04/18 02:39:33;;;;;;;1.70;1.60;;;2.20;99.90;;;;;;5115525;28;20027;-74
2022/04/18 02:41:59;;;;;;;3.35;1.42;;;2.10;99.90;;;;;;5115195;28;20050;-74
2022/04/18 02:44:25;;;;;;;1.52;1.42;;;2.10;99.90;;;;;;5114513;28;20468;-74
2022/04/18 02:46:50;;;;;;;1.20;1.10;;;2.00;99.90;;;;;;5114677;28;20035;-74
2022/04/18 02:49:16;;;;;;;3.83;1.50;;;2.00;99.90;;;;;;5114279;28;20019;-74
2022/04/18 02:51:42;;;;;;;2.88;1.30;;;1.90;99.90;;;;;;5114188;28;20112;-74
2022/04/18 02:54:07;;;;;;;2.85;2.03;;;1.70;99.90;;;;;;5114975;28;20032;-73
2022/04/18 02:56:33;;;;;;;3.25;1.40;;;1.60;99.90;;;;;;5114686;28;20034;-74
2022/04/18 02:58:59;;;;;;;2.60;1.27;;;1.70;99.90;;;;;;5114043;28;20027;-74
2022/04/18 03:01:24;;;;;;;2.35;2.13;;;1.80;99.90;;;;;;5112678;28;20468;-74
2022/04/18 03:03:50;;;;;;;3.10;1.80;;;1.80;99.90;;;;;;5113984;28;20144;-74
2022/04/18 03:06:16;;;;;;;1.42;1.33;;;1.80;99.90;;;;;;5114522;28;20032;-74
2022/04/18 03:08:42;;;;;;;1.95;1.83;;;1.80;99.90;;;;;;5114223;28;20108;-74
2022/04/18 03:11:08;;;;;;;2.55;2.17;;;1.60;99.90;;;;;;5114909;28;20027;-74
2022/04/18 03:13:44;;;;;;;1.52;1.30;;;1.50;99.90;;;;;;5114624;28;20212;-74
2022/04/18 03:16:11;;;;;;;2.33;1.63;;;1.50;99.90;;;;;;5115089;28;20080;-74
2022/04/18 03:18:37;;;;;;;1.50;1.40;;;1.60;99.90;;;;;;5114661;28;20040;-74
2022/04/18 03:21:04;;;;;;;2.50;1.50;;;1.60;99.90;;;;;;5114738;28;20061;-74
2022/04/18 03:23:33;;;;;;;1.92;1.40;;;1.50;99.90;;;;;;5115066;28;20053;-74
2022/04/18 03:25:59;;;;;;;1.70;1.30;;;1.40;99.90;;;;;;5113792;28;20491;-74
2022/04/18 03:28:25;;;;;;;3.47;2.03;;;1.40;99.90;;;;;;5115216;28;20035;-74
2022/04/18 03:30:52;;;;;;;2.22;2.03;;;1.30;99.90;;;;;;5114299;28;20112;-74
2022/04/18 03:33:17;;;;;;;1.95;1.55;;;1.10;99.90;;;;;;5114349;28;20038;-74
2022/04/18 03:41:14;;;;;;;2.30;1.67;;;0.90;99.90;;;;;;5113750;28;20522;-74
2022/04/18 03:43:40;;;;;;;2.97;1.42;;;0.90;99.90;;;;;;5114163;28;20263;-74
2022/04/18 03:46:05;;;;;;;2.03;1.70;;;0.90;99.90;;;;;;5113779;28;20110;-74
2022/04/18 03:48:31;;;;;;;4.35;2.05;;;0.80;99.90;;;;;;5113873;28;20032;-74
2022/04/18 03:50:57;;;;;;;3.13;1.70;;;0.80;99.90;;;;;;5114308;28;20508;-74
2022/04/18 03:53:23;;;;;;;1.88;1.63;;;0.70;99.90;;;;;;5114161;28;20019;-74
2022/04/18 03:55:48;;;;;;;2.40;1.80;;;0.70;99.90;;;;;;5113505;28;20023;-74
2022/04/18 03:58:14;;;;;;;1.80;1.65;;;0.70;99.90;;;;;;5112648;28;20019;-74
2022/04/18 04:00:42;;;;;;;2.30;2.10;;;0.70;99.90;;;;;;5113753;28;20034;-74
2022/04/18 04:03:08;;;;;;;3.05;2.00;;;0.60;99.90;;;;;;5113483;28;20027;-74
2022/04/18 04:05:34;;;;;;;1.90;1.67;;;0.50;99.90;;;;;;5113490;28;20034;-74
2022/04/18 04:08:00;;;;;;;5.13;1.98;;;0.40;99.90;;;;;;5113392;28;20016;-74
2022/04/18 04:10:26;;;;;;;4.78;2.03;;;0.40;99.90;;;;;;5113054;28;20020;-74
2022/04/18 04:12:51;;;;;;;3.20;2.35;;;0.40;99.90;;;;;;5112788;28;20492;-74
2022/04/18 04:15:17;;;;;;;3.25;2.40;;;0.30;99.90;;;;;;5113090;28;20475;-73
2022/04/18 04:17:43;;;;;;;3.80;1.67;;;0.30;99.90;;;;;;5111877;28;20499;-74
2022/04/18 04:20:09;;;;;;;3.25;2.00;;;0.40;99.90;;;;;;5112597;28;20031;-74
2022/04/18 04:22:34;;;;;;;2.58;1.95;;;0.30;99.90;;;;;;5112871;28;20020;-74
2022/04/18 04:25:00;;;;;;;2.55;1.95;;;0.30;99.90;;;;;;5114077;28;20384;-74
2022/04/18 04:27:26;;;;;;;2.40;2.00;;;0.30;99.90;;;;;;5113410;28;20372;-74
2022/04/18 04:29:52;;;;;;;2.70;2.42;;;0.30;99.90;;;;;;5112801;28;20031;-74
2022/04/18 04:32:17;;;;;;;2.67;2.05;;;0.20;99.90;;;;;;5112860;28;20409;-74
2022/04/18 04:34:44;;;;;;;3.45;2.42;;;0.10;99.90;;;;;;5113292;28;20092;-74
2022/04/18 04:37:09;;;;;;;2.10;1.77;;;0.10;99.90;;;;;;5113577;28;20023;-74
2022/04/18 04:39:35;;;;;;;2.45;1.85;;;0.10;99.90;;;;;;5111393;28;20028;-74
2022/04/18 04:42:00;;;;;;;3.40;2.20;;;0.10;99.90;;;;;;5112606;28;20451;-74
2022/04/18 04:44:26;;;;;;;5.60;2.65;;;0.10;99.90;;;;;;5112808;28;20020;-74
2022/04/18 04:46:52;;;;;;;4.85;2.38;;;0.10;99.90;;;;;;5112328;28;20046;-74
2022/04/18 04:49:17;;;;;;;3.05;2.40;;;0.30;99.90;;;;;;5112434;28;20024;-74
2022/04/18 04:51:43;;;;;;;4.38;2.30;;;0.20;99.90;;;;;;5113871;28;20020;-74
2022/04/18 04:54:09;;;;;;;4.25;2.40;;;0.20;99.90;;;;;;5112951;28;20012;-74
2022/04/18 04:56:34;;;;;;;2.72;2.25;;;0.10;99.90;;;;;;5112469;28;20019;-74
2022/04/18 04:59:01;;;;;;;2.75;2.15;;;0.10;99.90;;;;;;5113082;28;20035;-74
2022/04/18 05:01:27;;;;;;;2.38;2.08;;;0.10;99.90;;;;;;5111876;28;20076;-74
2022/04/18 05:03:52;;;;;;;3.10;2.00;;;0.20;99.90;;;;;;5112488;28;20074;-74
2022/04/18 05:06:18;;;;;;;3.30;2.28;;;0.30;99.90;;;;;;5111535;28;20041;-74
2022/04/18 05:08:44;;;;;;;2.83;2.33;;;0.30;99.90;;;;;;5112426;28;20282;-74
2022/04/18 05:11:10;;;;;;;3.00;2.00;;;0.40;99.90;;;;;;5110673;28;20028;-74
2022/04/18 05:13:35;;;;;;;3.20;2.20;;;0.40;99.90;;;;;;5112311;28;20048;-74
2022/04/18 05:16:01;;;;;;;2.90;2.60;;;0.50;99.90;;;;;;5112098;28;20074;-74
2022/04/18 05:18:27;;;;;;;5.65;1.80;;;0.50;99.90;;;;;;5112118;28;20015;-74
2022/04/18 05:20:53;;;;;;;4.95;2.22;;;0.50;99.90;;;;;;5111816;28;20482;-74
2022/04/18 05:23:21;;;;;;;2.28;2.08;;;0.60;99.90;;;;;;5112358;28;20124;-74
2022/04/18 05:25:47;;;;;;;3.33;2.05;;;0.70;99.90;;;;;;5112272;28;20503;-74
2022/04/18 05:28:13;;;;;;;1.95;1.83;;;0.80;99.90;;;;;;5112783;28;20065;-74
2022/04/18 05:30:39;;;;;;;3.55;1.80;;;0.90;99.90;;;;;;5113145;28;20361;-74
2022/04/18 05:33:06;;;;;;;2.30;2.10;;;1.00;99.90;;;;;;5112583;28;20098;-74
2022/04/18 05:35:32;;;;;;;1.75;1.65;;;1.20;99.90;;;;;;5111767;28;20112;-74
2022/04/18 05:37:58;;;;;;;1.70;1.60;;;1.50;99.90;;;;;;5111570;28;20055;-74
2022/04/18 05:40:24;;;;;;;2.33;1.98;;;1.70;99.90;;;;;;5112270;28;20015;-74
2022/04/18 05:42:51;;;;;;;3.83;1.65;;;1.90;99.90;;;;;;5112088;28;20673;-74
2022/04/18 05:45:17;;;;;;;3.08;1.98;;;2.10;99.90;;;;;;5112928;28;20420;-74
2022/04/18 05:47:43;;;;;;;4.45;1.88;;;2.50;99.90;;;;;;5112049;28;20027;-74
2022/04/18 05:50:09;;;;;;;1.83;1.40;;;2.90;99.90;;;;;;5111870;28;20042;-74
2022/04/18 05:52:36;;;;;;;2.42;1.80;;;3.10;99.90;;;;;;5112177;28;20518;-74
2022/04/18 05:55:02;;;;;;;1.70;1.60;;;3.30;99.90;;;;;;5112743;28;20011;-74
2022/04/18 05:57:27;;;;;;;1.98;1.63;;;3.50;99.90;;;;;;5113861;28;20541;-74
2022/04/18 05:59:53;;;;;;;2.88;2.13;;;3.50;99.90;;;;;;5112273;28;20055;-74
2022/04/18 06:02:19;;;;;;;3.55;1.90;;;3.60;99.90;;;;;;5114077;28;20027;-74
2022/04/18 06:04:45;;;;;;;2.50;1.58;;;3.70;99.90;;;;;;5112869;28;20032;-74
2022/04/18 06:07:11;;;;;;;1.70;1.60;;;4.00;99.90;;;;;;5112461;28;20476;-74
2022/04/18 06:09:37;;;;;;;1.65;1.55;;;4.40;99.90;;;;;;5111317;28;20030;-74
2022/04/18 06:12:03;;;;;;;2.60;1.75;;;4.60;99.90;;;;;;5111111;28;20044;-74
2022/04/18 06:14:28;;;;;;;2.38;1.75;;;4.60;99.90;;;;;;5111538;28;20580;-74
2022/04/18 06:16:54;;;;;;;1.58;1.48;;;4.60;99.90;;;;;;5111194;28;20451;-74
2022/04/18 06:19:20;;;;;;;2.00;1.80;;;4.80;99.90;;;;;;5112225;28;20547;-74
2022/04/18 06:21:48;;;;;;;3.78;1.75;;;4.80;99.90;;;;;;5111533;28;20484;-74
2022/04/18 06:24:14;;;;;;;1.90;1.80;;;5.00;99.90;;;;;;5111662;28;20142;-74
2022/04/18 06:26:39;;;;;;;21.73;7.93;;;5.30;99.90;;;;;;5112277;28;20587;-74
2022/04/18 06:29:05;;;;;;;8.88;5.18;;;5.80;99.90;;;;;;5111833;28;20087;-74
2022/04/18 06:31:31;;;;;;;6.47;3.63;;;6.20;99.90;;;;;;5110943;28;20020;-74
2022/04/18 06:33:57;;;;;;;6.97;3.75;;;6.50;99.90;;;;;;5111229;28;20062;-74
2022/04/18 06:36:22;;;;;;;4.10;3.05;;;6.60;99.90;;;;;;5110700;28;20457;-74
2022/04/18 06:38:48;;;;;;;2.63;2.28;;;6.80;99.90;;;;;;5111189;28;20042;-74
2022/04/18 06:41:14;;;;;;;2.58;2.38;;;7.10;99.90;;;;;;5112289;28;20034;-74
2022/04/18 06:43:40;;;;;;;2.58;2.22;;;7.50;99.20;;;;;;5114302;28;20111;-74
2022/04/18 06:46:05;;;;;;;5.28;2.30;;;8.30;91.80;;;;;;5115058;28;20044;-75
2022/04/18 06:48:31;;;;;;;6.05;2.30;;;8.50;91.50;;;;;;5114184;28;20019;-74
2022/04/18 06:50:57;;;;;;;3.92;1.83;;;9.20;89.60;;;;;;5114444;28;20016;-74
2022/04/18 06:53:22;;;;;;;1.80;1.70;;;9.20;74.80;;;;;;5114859;28;20556;-74
2022/04/18 06:58:32;;;;;;;3.97;2.80;;;9.20;71.20;;;;;;5114308;28;20085;-74
2022/04/18 07:00:58;;;;;;;2.33;1.85;;;9.10;72.60;;;;;;5114619;28;20023;-74
2022/04/18 07:03:26;;;;;;;2.80;1.92;;;8.70;70.80;;;;;;5114786;28;20201;-74
2022/04/18 07:05:51;;;;;;;2.30;1.63;;;8.60;75.20;;;;;;5115472;28;20031;-74
2022/04/18 07:08:17;;;;;;;3.08;1.55;;;8.60;75.70;;;;;;5115562;28;20543;-74
2022/04/18 07:10:43;;;;;;;2.75;2.45;;;8.50;77.80;;;;;;5114048;28;20460;-74
2022/04/18 07:13:08;;;;;;;2.30;1.60;;;8.60;79.90;;;;;;5114306;28;20417;-74
2022/04/18 07:15:34;;;;;;;1.92;1.65;;;8.50;76.30;;;;;;5114983;28;20023;-74
2022/04/18 07:18:01;;;;;;;2.85;1.63;;;8.60;79.30;;;;;;5113999;28;20041;-74
2022/04/18 07:20:28;;;;;;;2.78;2.15;;;;;;;;;;5113404;28;20032;-74
2022/04/18 07:22:54;;;;;;;9.82;4.45;;;9.10;74.30;;;;;;5114797;28;20437;-74
2022/04/18 07:25:20;;;;;;;3.67;2.38;;;9.30;74.00;;;;;;5115465;28;20039;-74
2022/04/18 07:27:46;;;;;;;3.42;2.25;;;9.40;72.00;;;;;;5115114;28;20395;-74
2022/04/18 07:30:12;;;;;;;3.67;1.80;;;9.60;72.10;;;;;;5114939;28;20026;-74
2022/04/18 07:32:42;;;;;;;3.63;2.00;;;9.00;67.50;;;;;;5115467;28;20030;-74
2022/04/18 07:35:09;;;;;;;2.47;1.40;;;9.50;70.70;;;;;;5117172;28;20033;-74
2022/04/18 07:37:35;;;;;;;3.13;1.65;;;9.90;70.20;;;;;;5115948;28;20023;-75
2022/04/18 07:40:01;;;;;;;1.63;1.52;;;10.50;65.90;;;;;;5114705;28;20024;-75
2022/04/18 07:42:26;;;;;;;2.42;1.27;;;10.80;64.90;;;;;;5114762;28;20022;-76
2022/04/18 07:44:52;;;;;;;3.35;1.25;;;10.70;63.40;;;;;;5114141;28;20037;-74
2022/04/18 07:47:18;;;;;;;4.50;1.33;;;10.70;62.60;;;;;;5113621;28;20028;-74
2022/04/18 07:49:44;;;;;;;1.63;1.52;;;11.10;61.70;;;;;;5113435;28;20472;-74
2022/04/18 07:52:11;;;;;;;2.90;1.50;;;11.10;60.70;;;;;;5112879;28;20058;-74
2022/04/18 07:54:38;;;;;;;2.25;1.20;;;11.10;62.50;;;;;;5112935;28;20020;-74
2022/04/18 07:57:04;;;;;;;1.67;1.35;;;11.10;60.90;;;;;;5112996;28;20023;-74
2022/04/18 07:59:31;;;;;;;3.80;1.70;;;11.10;60.30;;;;;;5112971;28;20023;-74
2022/04/18 08:01:57;;;;;;;2.28;1.60;;;11.30;60.00;;;;;;5113561;28;20050;-74
2022/04/18 08:04:24;;;;;;;2.95;1.48;;;11.20;59.30;;;;;;5114574;28;20047;-74
2022/04/18 08:06:49;;;;;;;2.42;1.30;;;11.20;59.40;;;;;;5114798;28;20085;-74
2022/04/18 08:09:15;;;;;;;0.93;0.93;;;11.30;60.70;;;;;;5112974;28;20019;-74
2022/04/18 08:11:41;;;;;;;4.03;1.50;;;10.90;59.50;;;;;;5112262;28;20024;-74
2022/04/18 08:14:07;;;;;;;1.75;1.48;;;10.90;60.90;;;;;;5113471;28;20547;-74
2022/04/18 08:16:33;;;;;;;3.58;1.80;;;11.40;61.80;;;;;;5112899;28;20024;-75
2022/04/18 08:18:58;;;;;;;1.60;1.40;;;11.90;58.50;;;;;;5112025;28;20619;-74
2022/04/18 08:21:24;;;;;;;2.60;1.50;;;11.90;57.30;;;;;;5111864;28;20027;-74
2022/04/18 08:23:51;;;;;;;3.28;1.48;;;12.00;58.20;;;;;;5112652;28;20058;-74
2022/04/18 08:26:19;;;;;;;2.53;1.55;;;12.00;57.00;;;;;;5112202;28;20031;-75
2022/04/18 08:28:45;;;;;;;1.70;1.17;;;12.30;57.30;;;;;;5113273;28;20384;-74
2022/04/18 08:31:11;;;;;;;3.17;1.42;;;12.60;60.50;;;;;;5112482;28;20028;-74
2022/04/18 08:33:37;;;;;;;1.67;1.40;;;12.90;55.60;;;;;;5112550;28;20030;-75
2022/04/18 08:36:04;;;;;;;1.75;1.30;;;12.60;56.80;;;;;;5112582;28;20023;-75
2022/04/18 08:38:30;;;;;;;1.65;1.52;;;12.60;56.40;;;;;;5111974;28;20019;-74
2022/04/18 08:40:58;;;;;;;1.27;1.10;;;13.00;55.60;;;;;;5111752;28;20024;-74
2022/04/18 08:43:23;;;;;;;2.38;1.20;;;12.70;54.70;;;;;;5112407;28;20392;-74
2022/04/18 08:45:49;;;;;;;2.15;1.10;;;12.50;55.30;;;;;;5112113;28;20031;-74
2022/04/18 08:53:48;;;;;;;1.40;1.20;;;12.90;56.50;;;;;;5112865;28;20046;-75
2022/04/18 08:56:13;;;;;;;2.13;1.30;;;12.90;56.40;;;;;;5112503;28;20031;-74
2022/04/18 08:58:40;;;;;;;1.60;1.35;;;12.60;58.20;;;;;;5112046;28;20020;-74
2022/04/18 09:01:07;;;;;;;3.55;1.63;;;12.90;58.70;;;;;;5111155;28;20107;-75
2022/04/18 09:03:36;;;;;;;1.52;1.38;;;13.10;55.90;;;;;;5110824;27;20027;-74
2022/04/18 09:06:07;;;;;;;1.92;1.60;;;12.90;57.00;;;;;;5111252;28;20031;-74
2022/04/18 09:08:44;;;;;;;1.75;1.52;;;12.80;57.50;;;;;;5111131;28;20547;-74
2022/04/18 09:11:10;;;;;;;1.58;1.48;;;12.90;56.00;;;;;;5110628;28;20100;-74
2022/04/18 09:13:42;;;;;;;3.08;1.77;;;13.00;55.90;;;;;;5110637;28;20445;-74
2022/04/18 09:16:16;;;;;;;1.70;1.13;;;13.40;55.80;;;;;;5110903;28;20028;-74
2022/04/18 09:18:42;;;;;;;2.40;1.50;;;13.20;56.80;;;;;;5111009;28;20487;-74
2022/04/18 09:21:08;;;;;;;1.83;1.70;;;13.10;56.00;;;;;;5110570;28;20542;-74
2022/04/18 09:23:35;;;;;;;1.17;1.17;;;13.10;56.10;;;;;;5110791;28;20023;-74
2022/04/18 09:26:08;;;;;;;1.58;1.33;;;13.00;55.80;;;;;;5109935;28;20043;-78
2022/04/18 09:28:42;;;;;;;1.70;1.60;;;12.90;56.30;;;;;;5111888;28;20499;-74
2022/04/18 09:31:10;;;;;;;4.43;1.98;;;13.00;58.00;;;;;;5111644;28;20023;-74
2022/04/18 09:33:45;;;;;;;1.95;1.60;;;12.90;56.00;;;;;;5110892;28;20016;-74
2022/04/18 09:36:18;;;;;;;2.45;1.77;;;12.70;56.70;;;;;;5110359;28;20483;-74
2022/04/18 09:38:52;;;;;;;2.08;1.60;;;12.80;56.60;;;;;;5111138;28;20479;-74
2022/04/18 09:41:23;;;;;;;1.77;1.52;;;12.80;58.30;;;;;;5114576;28;20031;-74
2022/04/18 09:43:52;;;;;;;2.40;1.63;;;12.80;57.50;;;;;;5113833;28;20442;-74
2022/04/18 09:46:18;;;;;;;2.75;1.55;;;12.60;57.60;;;;;;5111475;28;20464;-75
2022/04/18 09:48:46;;;;;;;3.00;2.55;;;12.50;57.30;;;;;;5111244;28;20516;-74
2022/04/18 09:51:26;;;;;;;2.38;1.65;;;12.70;57.80;;;;;;5111248;28;20526;-74
2022/04/18 09:53:57;;;;;;;1.33;1.20;;;12.90;57.50;;;;;;5111241;28;20026;-74
2022/04/18 09:56:25;;;;;;;3.70;2.50;;;13.10;57.00;;;;;;5110787;28;20498;-74
2022/04/18 09:58:53;;;;;;;3.45;2.17;;;13.10;56.70;;;;;;5110919;28;20031;-74
2022/04/18 10:01:19;;;;;;;2.42;1.45;;;13.20;56.70;;;;;;5111107;28;20020;-74
2022/04/18 10:03:48;;;;;;;1.52;1.42;;;13.60;57.50;;;;;;5111683;28;20043;-74
2022/04/18 10:06:14;;;;;;;1.40;1.30;;;;;;;;;;5111287;28;20028;-74
2022/04/18 10:08:40;;;;;;;1.60;1.42;;;13.40;57.60;;;;;;5111645;28;20326;-74
2022/04/18 10:11:13;;;;;;;2.30;1.70;;;13.70;58.60;;;;;;5109829;28;20031;-74
2022/04/18 10:13:39;;;;;;;2.58;1.58;;;13.80;58.30;;;;;;5111275;28;20043;-74
2022/04/18 10:16:06;;;;;;;2.15;1.50;;;13.70;55.60;;;;;;5113013;28;20023;-74
2022/04/18 10:18:47;;;;;;;2.00;1.60;;;13.80;56.00;;;;;;5115235;28;20019;-74
2022/04/18 10:21:25;;;;;;;1.42;1.20;;;14.10;54.90;;;;;;5115326;28;20063;-74
2022/04/18 10:24:19;;;;;;;1.30;1.20;;;14.20;55.30;;;;;;5115086;28;20027;-74
2022/04/18 10:27:24;;;;;;;1.60;1.50;;;14.40;55.40;;;;;;5114811;28;20035;-75
2022/04/18 10:29:54;;;;;;;1.52;1.10;;;14.30;56.40;;;;;;5115126;28;20026;-74
2022/04/18 10:32:24;;;;;;;2.25;1.40;;;14.20;55.80;;;;;;5115402;28;20030;-74
2022/04/18 10:34:51;;;;;;;2.47;1.30;;;14.00;56.40;;;;;;5113902;28;20051;-74
2022/04/18 10:37:24;;;;;;;2.28;1.38;;;13.90;56.40;;;;;;5095745;28;20023;-74
2022/04/18 10:40:03;;;;;;;2.67;1.45;;;14.30;56.90;;;;;;5114072;28;20012;-74
2022/04/18 10:42:33;;;;;;;;;;;14.60;55.40;;;;;;5115284;28;20032;-75
2022/04/18 10:44:59;;;;;;;1.30;1.20;;;14.70;53.80;;;;;;5114204;28;19907;-74
2022/04/18 10:47:25;;;;;;;2.88;1.50;;;14.60;56.60;;;;;;5112537;28;20353;-74
2022/04/18 10:50:20;;;;;;;1.85;1.60;;;14.80;53.40;;;;;;5112963;28;20024;-74
2022/04/18 10:53:08;;;;;;;1.75;1.63;;;15.40;52.30;;;;;;5113742;28;20020;-75
2022/04/18 10:55:38;;;;;;;1.35;1.27;;;15.60;52.40;;;;;;5114015;28;20074;-74
2022/04/18 10:58:13;;;;;;;1.67;1.58;;;16.80;55.00;;;;;;5113577;28;20387;-74
2022/04/18 11:00:53;;;;;;;3.92;2.20;;;15.20;52.50;;;;;;5112320;28;20075;-74
2022/04/18 11:03:40;;;;;;;2.75;1.42;;;15.30;52.30;;;;;;5113401;27;20031;-74
2022/04/18 11:06:18;;;;;;;1.42;1.30;;;15.50;51.80;;;;;;5116199;28;20031;-75
2022/04/18 11:09:07;;;;;;;1.55;1.40;;;15.60;53.00;;;;;;5117733;28;20054;-74
2022/04/18 11:11:50;;;;;;;1.45;1.30;;;15.50;52.20;;;;;;5112088;28;20174;-74
2022/04/18 11:14:23;;;;;;;2.08;1.50;;;;;;;;;;5113129;28;20055;-74
2022/04/18 11:16:56;;;;;;;2.45;1.30;;;15.30;50.30;;;;;;5113172;28;20034;-74
2022/04/18 11:19:26;;;;;;;1.23;1.13;;;15.40;52.10;;;;;;5113246;28;20426;-74
2022/04/18 11:21:58;;;;;;;1.88;1.73;;;15.70;50.90;;;;;;5113559;28;20113;-74
2022/04/18 11:24:42;;;;;;;3.92;1.55;;;16.30;49.90;;;;;;5112724;28;20388;-74
2022/04/18 11:27:26;;;;;;;1.45;1.30;;;16.40;49.80;;;;;;5112423;28;20042;-75
2022/04/18 11:30:04;;;;;;;1.52;1.25;;;16.70;49.20;;;;;;5113039;28;20042;-74
2022/04/18 11:32:42;;;;;;;1.90;1.45;;;16.50;48.80;;;;;;5111799;28;20051;-74
2022/04/18 11:35:09;;;;;;;3.80;1.50;;;16.80;47.50;;;;;;5111960;28;20032;-74
2022/04/18 11:37:39;;;;;;;3.47;2.22;;;17.30;48.90;;;;;;5112402;28;20030;-74
2022/04/18 11:40:13;;;;;;;2.13;1.30;;;17.20;49.30;;;;;;5112413;28;20047;-74
2022/04/18 11:42:40;;;;;;;1.30;1.20;;;17.50;47.30;;;;;;5112906;28;20110;-74
2022/04/18 11:45:19;;;;;;;2.15;1.20;;;17.70;48.60;;;;;;5111113;28;20138;-74
2022/04/18 11:47:47;;;;;;;3.10;1.30;;;17.40;48.00;;;;;;5112327;28;20028;-75
2022/04/18 11:50:21;;;;;;;1.17;1.10;;;18.40;48.00;;;;;;5112331;28;20111;-74
2022/04/18 11:52:47;;;;;;;2.13;0.98;;;18.30;46.40;;;;;;5112241;27;20463;-74
2022/04/18 11:55:15;;;;;;;2.28;1.00;;;19.10;45.00;;;;;;5112006;28;20031;-76
2022/04/18 11:57:43;;;;;;;1.55;1.45;;;18.90;46.00;;;;;;5112093;28;20028;-75
2022/04/18 12:00:14;;;;;;;1.75;1.35;;;19.30;45.50;;;;;;5113168;28;20435;-74
2022/04/18 12:08:12;;;;;;;1.20;1.10;;;19.60;44.10;;;;;;5111895;28;20039;-75
2022/04/18 12:10:42;;;;;;;1.00;0.90;;;20.10;41.90;;;;;;5111147;28;20023;-75
2022/04/18 12:13:13;;;;;;;1.13;1.02;;;19.50;42.40;;;;;;5111908;27;20484;-74
2022/04/18 12:15:40;;;;;;;1.63;1.10;;;19.90;41.80;;;;;;5111704;28;20051;-74
2022/04/18 12:18:09;;;;;;;2.42;1.25;;;20.10;41.50;;;;;;5111162;28;20019;-75
2022/04/18 12:20:35;;;;;;;1.00;1.00;;;20.50;41.90;;;;;;5111414;28;20105;-74
2022/04/18 12:23:02;;;;;;;1.90;1.00;;;20.90;40.70;;;;;;5111333;28;20032;-75
2022/04/18 12:25:33;;;;;;;1.77;0.98;;;20.80;40.80;;;;;;5109730;28;20144;-74
2022/04/18 12:28:03;;;;;;;1.00;0.90;;;20.60;40.60;;;;;;5111275;28;20388;-75
2022/04/18 12:30:29;;;;;;;2.50;1.17;;;20.50;40.10;;;;;;5112223;28;20059;-74
2022/04/18 12:32:55;;;;;;;1.30;1.17;;;19.90;43.10;;;;;;5109856;28;20444;-74
2022/04/18 12:35:41;;;;;;;1.42;0.98;;;19.80;41.70;;;;;;5113141;27;20026;-74
2022/04/18 12:38:09;;;;;;;1.42;1.00;;;19.80;41.30;;;;;;5109897;28;20027;-74
2022/04/18 12:40:54;;;;;;;1.10;1.10;;;19.80;39.20;;;;;;5111026;28;20043;-75
2022/04/18 12:43:26;;;;;;;1.77;1.38;;;19.80;39.80;;;;;;5109603;28;20482;-75
2022/04/18 12:46:01;;;;;;;1.38;1.27;;;21.60;40.20;;;;;;5110442;28;20047;-75
2022/04/18 12:48:28;;;;;;;3.55;1.13;;;20.80;40.10;;;;;;5110454;28;20545;-76
2022/04/18 12:50:55;;;;;;;1.13;1.05;;;19.20;41.10;;;;;;5113384;28;20028;-82
2022/04/18 12:53:42;;;;;;;1.30;1.17;;;19.90;41.60;;;;;;5111250;28;20051;-75
2022/04/18 12:56:07;;;;;;;1.00;1.00;;;20.00;40.60;;;;;;5109712;28;20024;-74
2022/04/18 12:58:40;;;;;;;1.45;1.00;;;20.80;38.20;;;;;;5110744;28;20034;-75
2022/04/18 13:01:07;;;;;;;2.15;0.98;;;21.10;38.00;;;;;;5110895;27;20027;-76
2022/04/18 13:03:43;;;;;;;1.25;1.00;;;21.20;35.60;;;;;;5109524;28;20020;-75
2022/04/18 13:06:10;;;;;;;1.08;1.00;;;21.40;36.40;;;;;;5108799;28;20028;-75
2022/04/18 13:08:40;;;;;;;0.93;0.93;;;21.40;38.40;;;;;;5109806;28;20468;-75
2022/04/18 13:11:07;;;;;;;2.15;1.30;;;21.20;36.60;;;;;;5110384;28;20104;-76
2022/04/18 13:13:33;;;;;;;1.20;1.10;;;21.70;36.70;;;;;;5110305;28;20100;-75
2022/04/18 13:16:19;;;;;;;0.88;0.82;;;22.40;35.90;;;;;;5110501;27;20028;-75
2022/04/18 13:18:45;;;;;;;1.42;0.80;;;22.80;35.20;;;;;;5110289;28;20023;-76
2022/04/18 13:21:11;;;;;;;1.40;1.00;;;23.60;34.50;;;;;;5091791;28;20050;-75
2022/04/18 13:23:36;;;;;;;0.80;0.80;;;23.00;34.60;;;;;;5110193;28;20019;-76
2022/04/18 13:26:02;;;;;;;0.80;0.80;;;23.30;35.00;;;;;;5108367;28;20039;-74